Weather observations for the past three days for
Boulder Municipal Airport
Metric (Imperial)
Date Time (mdt) Wind (kph) Vis. (km) Weather Sky Cond. Temperature (ºC) Relative Humidity Wind Chill (°C) Heat Index (°C) Pressure Precipitation (cm)
Air Dwpt 6 hour altimeter (cm) sea level (mb) 1 hr 3 hr 6 hr
Max. Min.
03 15:55 NW 13 G 57 16.09 Partly Cloudy SCT075 SCT090 SCT120 21 -6 16% 75.92 0.0
03 15:35 W 39 G 54 16.09 Partly Cloudy and Breezy SCT120 22 -5 16% 75.95 0.0
03 15:15 SW 13 16.09 Partly Cloudy SCT100 24 -6 13% 24 75.95 0.0
03 14:55 W 19 G 28 16.09 Fair CLR 23 -6 14% 75.97 0.0
03 14:35 NW 6 16.09 Fair CLR 22 -6 15% 75.97 0.0
03 14:15 N 15 16.09 Fair CLR 23 -6 14% 76 0.0
03 13:55 Calm 16.09 Fair CLR 22 -7 14% 76.02 0.0
03 13:35 SW 11 16.09 Fair CLR 22 -6 15% 76.02 0.0
03 13:15 W 20 G 28 16.09 Fair CLR 23 -6 14% 76.05 0.0
03 12:55 NW 17 16.09 Fair CLR 23 -6 14% 76.1 0.0
03 12:35 W 13 16.09 Fair CLR 22 -6 15% 76.12 0.0
03 12:15 N 9 G 31 16.09 Fair CLR 22 -7 14% 76.15 0.0
03 11:55 W 13 G 30 16.09 Fair CLR 22 -7 14% 76.17 0.0
03 11:35 W 17 G 26 16.09 Fair CLR 21 -7 15% 76.2 0.0
03 11:15 NW 19 G 26 16.09 Fair CLR 20 -7 16% 76.23 0.0
03 10:55 W 19 G 30 16.09 Fair CLR 21 -7 15% 76.23 0.0
03 10:35 W 24 G 41 16.09 Fair CLR 20 -7 16% 76.23 0.0
03 10:15 W 30 G 43 16.09 Fair CLR 20 -6 17% 76.23 0.0
03 09:55 W 26 G 41 16.09 Fair CLR 20 -7 16% 76.23 0.0
03 09:35 W 11 16.09 Fair CLR 20 -6 17% 76.23 0.0
03 09:15 W 15 G 30 16.09 Fair CLR 19 -6 18% 76.25 0.0
03 08:55 SW 17 G 30 16.09 Fair CLR 18 -6 19% 76.25 0.0
03 08:35 SW 13 16.09 Fair CLR 18 -6 19% 76.25 0.0
03 08:15 W 22 G 37 16.09 Fair CLR 18 -7 18% 76.28 0.0
03 07:55 W 28 G 41 16.09 Fair CLR 17 -7 19% 76.28 0.0
03 07:35 W 24 G 35 16.09 Fair CLR 17 -7 19% 76.28 0.0
03 07:15 W 24 16.09 Fair CLR 17 -7 19% 76.23 0.0
03 06:55 W 13 G 28 16.09 Fair CLR 17 -7 19% 76.23 0.0
03 06:35 W 20 16.09 Fair CLR 15 -6 23% 76.23 0.0
03 06:15 SW 9 16.09 Fair CLR 12 -5 30% 76.23 0.0
03 05:55 SW 11 16.09 Fair CLR 12 -5 30% 76.23 0.0
03 05:35 S 7 16.09 Fair CLR 12 -5 30% 76.23 0.0
03 05:15 S 6 16.09 Fair CLR 12 -6 28% 76.23 0.0
03 04:55 SE 7 16.09 Fair CLR 13 -5 28% 76.23 0.0
03 04:35 S 6 16.09 Fair CLR 13 -6 26% 76.23 0.0
03 04:15 Calm 16.09 Fair CLR 13 -6 26% 76.23 0.0
03 03:55 W 11 16.09 Fair CLR 14 -5 27% 76.23 0.0
03 03:35 SW 11 16.09 Fair CLR 14 -5 27% 76.23 0.0
03 03:15 W 15 16.09 Fair CLR 14 -6 25% 76.23 0.0
03 02:55 SW 13 16.09 Fair CLR 14 -6 25% 76.23 0.0
03 02:35 SW 13 16.09 Fair CLR 14 -6 25% 76.23 0.0
03 02:15 SW 11 16.09 Fair CLR 14 -6 25% 76.25 0.0
03 01:55 W 6 16.09 Fair CLR 13 -6 26% 76.28 0.0
03 01:35 W 11 16.09 Fair CLR 13 -7 24% 76.28 0.0
03 01:15 W 13 16.09 Fair CLR 14 -8 21% 76.3 0.0
03 00:55 SW 15 G 28 16.09 Fair CLR 15 -11 16% 76.3 0.0
03 00:35 SW 17 16.09 Fair CLR 15 -11 16% 76.3 0.0
03 00:15 SW 17 16.09 Fair CLR 14 -11 17% 76.3 0.0
02 23:55 SW 15 16.09 Fair CLR 14 -11 17% 76.3 0.0
02 23:35 W 11 16.09 Fair CLR 14 -11 17% 76.3 0.0
02 23:15 SW 9 16.09 Fair CLR 13 -11 18% 76.3 0.0
02 22:55 SW 9 16.09 Fair CLR 13 -11 18% 76.3 0.0
02 22:35 W 11 16.09 Fair CLR 13 -11 18% 76.33 0.0
02 22:15 W 11 16.09 Fair CLR 14 -10 18% 76.33 0.0
02 21:55 W 7 16.09 Fair CLR 14 -11 17% 76.33 0.0
02 21:35 SW 9 16.09 Fair CLR 14 -8 21% 76.33 0.0
02 21:15 W 7 16.09 Fair CLR 15 -9 18% 76.33 0.0
02 20:55 SW 7 16.09 Fair CLR 15 -10 17% 76.3 0.0
02 20:35 W 7 16.09 Fair CLR 15 -10 17% 76.3 0.0
02 20:15 Calm 16.09 Fair CLR 16 -11 15% 76.28 0.0
02 19:55 NE 6 16.09 Fair CLR 17 -10 15% 76.28 0.0
02 19:35 NE 7 16.09 Fair CLR 20 -11 11% 76.28 0.0
02 19:15 NE 7 16.09 Fair CLR 21 -11 11% 76.28 0.0
02 18:55 E 7 16.09 Fair CLR 22 -11 10% 76.25 0.0
02 18:35 E 7 16.09 Fair CLR 22 -10 11% 76.25 0.0
02 18:15 E 7 16.09 Fair CLR 22 -10 11% 76.28 0.0
02 17:55 E 7 16.09 Fair CLR 22 -10 11% 76.28 0.0
02 17:35 E 9 16.09 Fair CLR 22 -10 11% 76.28 0.0
02 17:15 E 6 16.09 Fair CLR 22 -10 11% 76.28 0.0
02 16:55 Calm 16.09 Fair CLR 22 -9 12% 76.28 0.0
02 16:35 SE 9 16.09 Fair CLR 22 -10 11% 76.3 0.0
02 16:15 E 11 16.09 Fair CLR 22 -10 11% 76.33 0.0
02 15:55 NE 9 16.09 Fair CLR 22 -9 12% 76.35 0.0
02 15:35 E 13 16.09 Fair CLR 22 -9 12% 76.38 0.0
02 15:15 E 7 16.09 Fair CLR 22 -9 12% 76.4 0.0
02 14:55 E 13 16.09 Fair CLR 22 -8 13% 76.4 0.0
02 14:35 E 13 16.09 Fair CLR 22 -8 13% 76.43 0.0
02 14:15 NE 6 16.09 Fair CLR 21 -8 13% 76.45 0.0
02 13:55 NE 17 16.09 Fair CLR 21 -8 13% 76.45 0.0
02 13:35 Calm 16.09 Fair CLR 21 -8 13% 76.48 0.0
02 13:15 E 13 16.09 Fair CLR 21 -7 15% 76.5 0.0
02 12:55 E 9 16.09 Fair CLR 21 -7 15% 76.53 0.0
02 12:35 E 11 16.09 Fair CLR 20 -8 14% 76.56 0.0
02 12:15 Calm 16.09 Fair CLR 18 -8 16% 76.58 0.0
02 11:55 SE 11 16.09 Fair CLR 18 -8 16% 76.61 0.0
02 11:35 E 9 16.09 Fair CLR 18 -8 16% 76.61 0.0
02 11:15 NE 6 16.09 Fair CLR 18 -9 15% 76.63 0.0
02 10:55 NE 11 16.09 Fair CLR 18 -8 16% 76.63 0.0
02 10:35 E 9 16.09 Fair CLR 17 -8 17% 76.63 0.0
02 10:15 SE 9 16.09 Fair CLR 17 -9 16% 76.66 0.0
02 09:55 E 11 16.09 Fair CLR 16 -9 17% 76.66 0.0
02 09:35 NE 6 16.09 Fair CLR 16 -7 20% 76.66 0.0
02 09:15 Calm 16.09 Fair CLR 15 -6 23% 76.66 0.0
02 08:55 Calm 16.09 Fair CLR 13 -5 28% 76.71 0.0
02 08:35 Calm 16.09 Fair CLR 12 -5 30% 76.71 0.0
02 08:15 Calm 16.09 Fair CLR 10 -5 35% 76.71 0.0
02 07:55 S 6 16.09 Fair CLR 8 -5 40% 76.71 0.0
02 07:35 Calm 16.09 Fair CLR 7 -3 49% 76.71 0.0
02 07:15 Calm 16.09 Fair CLR 6 -4 49% 76.71 0.0
02 06:55 Calm 16.09 Fair CLR 5 -4 53% 76.71 0.0
02 06:35 Calm 16.09 Fair CLR 5 -5 49% 76.71 0.0
02 06:15 Calm 16.09 Fair CLR 4 -3 61% 76.68 0.0
02 05:55 Calm 16.09 Fair CLR 5 -5 49% 76.68 0.0
02 05:35 Calm 16.09 Fair CLR 5 -5 49% 76.66 0.0
02 05:15 Calm 16.09 Fair CLR 4 -3 61% 76.66 0.0
02 04:55 W 6 16.09 Fair CLR 4 -3 61% 76.66 0.0
02 04:35 Calm 16.09 Fair CLR 4 -6 48% 76.66 0.0
02 04:15 NE 6 16.09 Fair CLR 5 -6 45% 76.66 0.0
02 03:55 Calm 16.09 Fair CLR 5 -7 42% 76.63 0.0
02 03:35 SW 9 16.09 Fair CLR 8 -7 34% 7 76.61 0.0
02 03:15 W 9 16.09 Fair CLR 8 -7 34% 7 76.61 0.0
02 02:55 SW 7 16.09 Fair CLR 9 -7 32% 8 76.61 0.0
02 02:35 SW 13 16.09 Fair CLR 9 -7 32% 7 76.63 0.0
02 02:15 SW 11 16.09 Fair CLR 8 -6 37% 6 76.63 0.0
02 01:55 SW 13 16.09 Fair CLR 9 -6 34% 7 76.63 0.0
02 01:35 SW 13 16.09 Fair CLR 9 -6 34% 7 76.66 0.0
02 01:15 W 11 16.09 Fair CLR 9 -6 34% 8 76.66 0.0
02 00:55 W 9 16.09 Fair CLR 10 -6 32% 9 76.66 0.0
02 00:35 SW 13 16.09 Fair CLR 10 -6 32% 8 76.66 0.0
02 00:15 W 11 16.09 Partly Cloudy SCT110 10 -6 32% 9 76.66 0.0
01 23:55 W 6 16.09 Mostly Cloudy BKN110 10 -5 35% 76.66 0.0
01 23:35 W 7 16.09 Mostly Cloudy BKN110 11 -6 30% 76.66 0.0
01 23:15 SW 6 16.09 Mostly Cloudy SCT090 BKN110 11 -6 30% 76.66 0.0
01 22:55 SW 7 16.09 Mostly Cloudy BKN090 BKN110 11 -6 30% 76.66 0.0
01 22:35 W 6 16.09 Mostly Cloudy BKN110 12 -5 30% 76.66 0.0
01 22:15 Calm 16.09 Partly Cloudy SCT100 12 -6 28% 76.66 0.0
01 21:55 Calm 16.09 Partly Cloudy SCT100 12 -7 26% 76.63 0.0
01 21:35 Calm 16.09 Partly Cloudy SCT120 12 -7 26% 76.61 0.0
01 21:15 Calm 16.09 Partly Cloudy SCT120 12 -8 24% 76.56 0.0
01 20:55 NW 6 16.09 Partly Cloudy SCT110 12 -8 24% 76.56 0.0
01 20:35 NW 7 16.09 Partly Cloudy SCT120 12 -8 24% 76.53 0.0
01 20:15 Calm 16.09 Fair CLR 13 -7 24% 76.5 0.0
01 19:55 Calm 16.09 Fair CLR 13 -8 23% 76.48 0.0
01 19:35 N 6 16.09 Fair CLR 15 -8 20% 76.45 0.0
01 19:15 N 6 16.09 Fair CLR 15 -9 18% 76.43 0.0
01 18:55 NW 6 16.09 Fair CLR 15 -9 18% 76.43 0.0
01 18:35 W 6 16.09 Fair CLR 16 -10 16% 76.4 0.0
01 18:15 NE 6 16.09 Fair CLR 17 -10 15% 76.4 0.0
01 17:55 NW 7 16.09 Fair CLR 17 -9 16% 76.4 0.0
01 17:35 Calm 16.09 Fair CLR 17 -9 16% 76.4 0.0
01 17:15 Calm 16.09 Fair CLR 17 -9 16% 76.4 0.0
01 16:55 NE 11 16.09 Fair CLR 17 -8 17% 76.4 0.0
01 16:35 SE 7 16.09 Fair CLR 17 -9 16% 76.4 0.0
01 16:15 Calm 16.09 Fair CLR 17 -8 17% 76.43 0.0
01 15:55 E 9 16.09 Fair CLR 17 -8 17% 76.43 0.0
01 15:35 E 11 16.09 Fair CLR 17 -8 17% 76.45 0.0
01 15:15 N 7 16.09 Fair CLR 17 -8 17% 76.45 0.0
01 14:55 N 11 16.09 Fair CLR 16 -7 20% 76.48 0.0
01 14:35 N 11 16.09 Fair CLR 16 -7 20% 76.48 0.0
01 14:15 E 11 16.09 Fair CLR 16 -6 22% 76.5 0.0
01 13:55 SE 11 16.09 Fair CLR 16 -6 22% 76.5 0.0
01 13:35 SE 13 16.09 Fair CLR 16 -6 22% 76.5 0.0
01 13:15 NE 11 16.09 Fair CLR 16 -6 22% 76.5 0.0
01 12:55 NE 7 16.09 Fair CLR 16 -6 22% 76.53 0.0
01 12:35 NE 13 16.09 Fair CLR 15 -6 23% 76.53 0.0
01 12:15 E 11 16.09 Partly Cloudy SCT070 15 -5 25% 76.56 0.0
01 11:55 SE 11 16.09 Partly Cloudy SCT070 14 -5 27% 76.56 0.0
01 11:35 SE 11 16.09 Fair CLR 13 -5 28% 76.58 0.0
01 11:15 NE 7 16.09 Fair CLR 13 -5 28% 76.58 0.0
01 10:55 SE 9 16.09 Fair CLR 13 -6 26% 76.58 0.0
01 10:35 SE 6 16.09 Fair CLR 12 -6 28% 76.61 0.0
01 10:15 E 9 16.09 Fair CLR 12 -6 28% 76.58 0.0
01 09:55 E 6 16.09 Fair CLR 12 -6 28% 76.58 0.0
01 09:35 Calm 16.09 Fair CLR 11 -4 35% 76.58 0.0
01 09:15 Calm 16.09 Fair CLR 10 -4 37% 76.61 0.0
01 08:55 Calm 16.09 Fair CLR 10 -5 35% 76.61 0.0
01 08:35 Calm 16.09 Fair CLR 9 -4 40% 76.61 0.0
01 08:15 Calm 16.09 Fair CLR 7 -5 43% 76.61 0.0
01 07:55 Calm 16.09 Fair CLR 6 -4 49% 76.61 0.0
01 07:35 Calm 16.09 Fair CLR 5 -3 57% 76.61 0.0
01 07:15 Calm 16.09 Fair CLR 4 -2 65% 76.61 0.0
01 06:55 Calm 16.09 Fair CLR 2 -2 75% 76.58 0.0
01 06:35 Calm 16.09 Fair CLR 1 -2 81% 76.56 0.0
01 06:15 W 7 16.09 Fair CLR 2 -2 75% 0 76.56 0.0
01 05:55 SW 7 16.09 Fair CLR 3 -3 65% 1 76.56 0.0
01 05:35 W 6 16.09 Fair CLR 2 -1 81% 76.56 0.0
01 05:15 Calm 16.09 Fair CLR 1 0 93% 76.56 0.0
01 04:55 Calm 16.09 Fair CLR 2 -2 75% 76.56 0.0
01 04:35 Calm 16.09 Fair CLR 1 -2 81% 76.56 0.0
01 04:15 Calm 16.09 Fair CLR 0 -2 87% 76.56 0.0
01 03:55 Calm 16.09 Fair CLR 2 -1 81% 76.56 0.0
01 03:35 Calm 16.09 Fair CLR 2 0 87% 76.56 0.0
01 03:15 Calm 16.09 Fair CLR 1 -2 81% 76.56 0.0
01 02:55 Calm 16.09 Fair CLR 2 -1 81% 76.56 0.0
01 02:35 Calm 16.09 Fair CLR 2 -1 81% 76.58 0.0
01 02:15 Calm 16.09 Fair CLR 3 -1 75% 76.58 0.0
01 01:55 SW 6 16.09 Fair CLR 3 -1 75% 76.61 0.0
01 01:35 SW 6 16.09 Fair CLR 4 -1 70% 76.61 0.0
01 01:15 SW 6 16.09 Fair CLR 4 -1 70% 76.63 0.0
01 00:55 SW 6 16.09 Fair CLR 4 0 75% 76.63 0.0
01 00:35 Calm 16.09 Fair CLR 4 0 75% 76.63 0.0
01 00:15 Calm 16.09 Partly Cloudy SCT085 5 0 70% 76.63 0.0
30 23:55 Calm 16.09 Fair CLR 5 0 70% 76.63 0.0
30 23:35 Calm 16.09 Fair CLR 6 0 66% 76.63 0.0
30 23:15 Calm 16.09 Fair CLR 6 0 66% 76.63 0.0
30 22:55 SW 7 16.09 Partly Cloudy SCT120 6 0 66% 5 76.63 0.0
30 22:35 SW 6 16.09 Partly Cloudy SCT120 6 0 66% 76.63 0.0
30 22:15 SW 6 16.09 Fair CLR 6 0 66% 76.63 0.0
30 21:55 SW 6 16.09 Fair CLR 6 0 66% 76.63 0.0
30 21:35 SW 6 16.09 Partly Cloudy SCT120 6 0 66% 76.63 0.0
30 21:15 Calm 16.09 Fair CLR 6 0 66% 76.61 0.0
30 20:55 Calm 16.09 Fair CLR 7 0 61% 76.61 0.0
30 20:35 Calm 16.09 Fair CLR 7 0 61% 76.58 0.0
30 20:15 Calm 16.09 Fair CLR 7 0 61% 76.56 0.0
30 19:55 Calm 16.09 Fair CLR 7 0 61% 76.56 0.0
30 19:35 NW 6 16.09 Fair CLR 7 0 61% 76.56 0.0
30 19:15 Calm 16.09 Fair CLR 7 0 61% 76.56 0.0
30 18:55 NW 9 16.09 Partly Cloudy SCT042 8 0 57% 7 76.53 0.0
30 18:35 NW 7 16.09 Partly Cloudy SCT060 8 0 57% 7 76.53 0.0
30 18:15 N 6 16.09 Overcast SCT049 OVC060 8 0 57% 76.53 0.0
30 17:55 N 9 16.09 Overcast SCT047 OVC050 8 0 57% 7 76.53 0.0
30 17:35 Calm 16.09 Overcast SCT039 BKN047 OVC055 8 0 57% 76.53 0.0
30 17:15 Calm 16.09 Overcast OVC044 8 0 57% 76.53 0.0
30 16:55 SE 7 16.09 Overcast SCT046 OVC060 8 -1 53% 7 76.53 0.0
30 16:35 S 6 16.09 Overcast SCT048 OVC060 8 -1 53% 76.53 0.0
Date Time (mdt) Wind (kph) Vis. (km) Weather Sky Cond. Air Dwpt Max. Min. Relative Humidity Wind Chill (°C) Heat Index (°C) altimeter (cm) sea level (mb) 1 hr 3 hr 6 hr
6 hour
Temperature (ºC) Pressure Precipitation (cm)